createdAt,value
2018-06-17T00:00:16.077Z,51.66
2018-06-17T00:02:48.839Z,49.18
2018-06-17T00:05:29.065Z,48.94
2018-06-17T00:08:02.627Z,49.67
2018-06-17T00:10:35.727Z,50.52
2018-06-17T00:13:09.904Z,50.51
2018-06-17T00:15:41.904Z,49.91
2018-06-17T00:18:12.135Z,50.56
2018-06-17T00:20:43.406Z,50.68
2018-06-17T00:23:15.679Z,50.18
2018-06-17T00:25:48.646Z,49.85
2018-06-17T00:28:19.530Z,49.51
2018-06-17T00:30:52.836Z,49.73
2018-06-17T00:33:23.564Z,49.64
2018-06-17T00:35:55.191Z,49.92
2018-06-17T00:38:28.445Z,50.42
2018-06-17T00:40:58.926Z,49.91
2018-06-17T00:43:29.858Z,50.25
2018-06-17T00:46:00.938Z,50.08
2018-06-17T00:48:33.470Z,50.21
2018-06-17T00:51:03.647Z,50.69
2018-06-17T00:53:34.819Z,50.32
2018-06-17T00:56:21.820Z,49.90
2018-06-17T00:58:53.817Z,50.18
2018-06-17T01:01:24.536Z,49.81
2018-06-17T01:03:55.371Z,49.90
2018-06-17T01:06:28.207Z,50.57
2018-06-17T01:09:03.053Z,50.44
2018-06-17T01:11:36.608Z,51.16
2018-06-17T01:14:09.049Z,51.34
2018-06-17T01:16:41.179Z,50.61
2018-06-17T01:19:12.546Z,51.00
2018-06-17T01:21:43.708Z,50.94
2018-06-17T01:24:15.796Z,51.89
2018-06-17T01:26:46.176Z,52.18
2018-06-17T01:29:16.820Z,52.23
2018-06-17T01:31:47.725Z,52.85
2018-06-17T01:34:19.790Z,52.60
2018-06-17T01:36:51.090Z,53.23
2018-06-17T01:39:22.571Z,53.75
2018-06-17T01:41:56.022Z,53.41
2018-06-17T01:44:28.586Z,53.69
2018-06-17T01:46:59.832Z,54.04
2018-06-17T01:49:31.653Z,54.15
2018-06-17T01:52:02.091Z,54.69
2018-06-17T01:54:33.001Z,54.34
2018-06-17T01:57:07.287Z,55.27
2018-06-17T01:59:49.831Z,55.37
2018-06-17T02:02:22.345Z,55.52
2018-06-17T02:05:00.550Z,55.88
2018-06-17T02:07:39.606Z,55.29
2018-06-17T02:10:15.613Z,55.66
2018-06-17T02:12:47.654Z,55.71
2018-06-17T02:15:19.894Z,55.97
2018-06-17T02:17:50.320Z,55.66
2018-06-17T02:20:25.750Z,55.14
2018-06-17T02:22:59.885Z,55.58
2018-06-17T02:25:31.330Z,54.74
2018-06-17T02:28:03.502Z,55.96
2018-06-17T02:30:40.002Z,55.51
2018-06-17T02:33:12.851Z,55.30
2018-06-17T02:35:44.516Z,55.44
2018-06-17T02:38:15.221Z,56.23
2018-06-17T02:40:45.915Z,56.60
2018-06-17T02:43:20.039Z,56.94
2018-06-17T02:45:55.937Z,57.57
2018-06-17T02:48:31.885Z,57.02
2018-06-17T02:53:10.777Z,56.39
2018-06-17T02:55:45.385Z,55.31
2018-06-17T02:58:21.487Z,56.33
2018-06-17T03:00:55.706Z,56.43
2018-06-17T03:03:28.442Z,56.35
2018-06-17T03:05:59.464Z,56.05
2018-06-17T03:08:36.827Z,56.34
2018-06-17T03:11:08.491Z,56.10
2018-06-17T03:13:41.428Z,56.55
2018-06-17T03:16:13.790Z,56.19
2018-06-17T03:18:50.354Z,56.70
2018-06-17T03:21:20.721Z,56.24
2018-06-17T03:23:52.581Z,57.28
2018-06-17T03:26:30.417Z,56.23
2018-06-17T03:29:06.528Z,55.74
2018-06-17T03:31:44.215Z,55.41
2018-06-17T03:34:15.106Z,55.58
2018-06-17T03:36:45.438Z,56.05
2018-06-17T03:39:16.544Z,55.94
2018-06-17T03:41:46.977Z,56.48
2018-06-17T03:44:17.942Z,57.26
2018-06-17T03:46:50.691Z,56.45
2018-06-17T03:49:29.568Z,56.28
2018-06-17T03:52:01.285Z,55.76
2018-06-17T03:54:32.800Z,55.99
2018-06-17T03:57:03.630Z,56.01
2018-06-17T03:59:36.097Z,55.38
2018-06-17T04:02:07.651Z,56.47
2018-06-17T04:04:43.658Z,56.66
2018-06-17T04:07:14.054Z,55.94
2018-06-17T04:09:45.194Z,55.67
2018-06-17T04:12:16.200Z,55.94
2018-06-17T04:14:48.548Z,55.10
2018-06-17T04:17:21.559Z,55.08
2018-06-17T04:19:52.476Z,55.21
2018-06-17T04:22:23.821Z,55.87
2018-06-17T04:24:55.298Z,56.82
2018-06-17T04:27:27.092Z,57.71
2018-06-17T04:29:57.923Z,58.25
2018-06-17T04:32:31.650Z,58.31
2018-06-17T04:35:02.386Z,56.66
2018-06-17T04:37:36.598Z,56.70
2018-06-17T04:40:10.593Z,55.61
2018-06-17T04:42:41.584Z,56.11
2018-06-17T04:45:14.247Z,55.59
2018-06-17T04:47:45.137Z,55.39
2018-06-17T04:50:15.534Z,54.92
2018-06-17T04:52:46.685Z,55.39
2018-06-17T04:55:17.394Z,55.37
2018-06-17T04:57:48.057Z,55.54
2018-06-17T05:00:18.925Z,54.98
2018-06-17T05:02:49.137Z,55.25
2018-06-17T05:05:19.593Z,55.15
2018-06-17T05:07:50.540Z,54.38
2018-06-17T05:10:21.482Z,55.00
2018-06-17T05:12:52.492Z,53.66
2018-06-17T05:15:24.757Z,53.29
2018-06-17T05:17:55.971Z,52.92
2018-06-17T05:20:26.427Z,53.91
2018-06-17T05:22:57.752Z,52.96
2018-06-17T05:25:28.706Z,53.14
2018-06-17T05:27:59.948Z,51.61
2018-06-17T05:30:30.341Z,51.50
2018-06-17T05:33:02.799Z,50.75
2018-06-17T05:35:34.738Z,52.01
2018-06-17T05:38:06.673Z,51.24
2018-06-17T05:40:40.033Z,51.10
2018-06-17T05:43:11.081Z,51.99
2018-06-17T05:45:43.376Z,52.14
2018-06-17T05:48:13.787Z,50.86
2018-06-17T05:50:44.825Z,50.43
2018-06-17T05:53:16.273Z,50.21
2018-06-17T05:55:47.760Z,50.42
2018-06-17T05:58:18.676Z,50.06
2018-06-17T06:00:50.713Z,49.60
2018-06-17T06:03:20.898Z,49.38
2018-06-17T06:05:53.255Z,49.45
2018-06-17T06:08:26.900Z,48.74
2018-06-17T06:10:58.923Z,47.13
2018-06-17T06:13:29.761Z,46.81
2018-06-17T06:16:00.300Z,46.05
2018-06-17T06:18:30.708Z,46.89
2018-06-17T06:21:01.605Z,46.83
2018-06-17T06:23:34.186Z,47.13
2018-06-17T06:26:05.342Z,47.41
2018-06-17T06:28:35.989Z,47.23
2018-06-17T06:31:06.657Z,47.30
2018-06-17T06:33:37.636Z,48.16
2018-06-17T06:36:11.904Z,47.64
2018-06-17T06:38:46.698Z,44.36
2018-06-17T06:41:18.649Z,44.46
2018-06-17T06:43:50.965Z,44.71
2018-06-17T06:46:22.034Z,44.39
2018-06-17T06:48:54.432Z,44.26
2018-06-17T06:51:25.645Z,43.85
2018-06-17T06:53:56.576Z,44.27
2018-06-17T06:56:30.477Z,44.20
2018-06-17T06:59:01.829Z,45.46
2018-06-17T07:01:44.253Z,45.05
2018-06-17T07:04:25.442Z,44.72
2018-06-17T07:07:07.210Z,45.73
2018-06-17T07:09:48.263Z,46.25
2018-06-17T07:12:20.568Z,45.52
2018-06-17T07:14:52.101Z,45.29
2018-06-17T07:17:36.590Z,46.21
2018-06-17T07:20:07.045Z,45.81
2018-06-17T07:22:37.141Z,46.62
2018-06-17T07:27:22.073Z,47.67
2018-06-17T07:29:52.833Z,48.24
2018-06-17T07:32:27.091Z,47.28
2018-06-17T07:35:00.244Z,47.68
2018-06-17T07:37:30.654Z,46.99
2018-06-17T07:41:04.091Z,46.27
2018-06-17T07:43:39.146Z,47.13
2018-06-17T07:46:18.845Z,47.02
2018-06-17T07:49:57.981Z,46.21
2018-06-17T07:52:45.517Z,45.97
2018-06-17T07:55:18.342Z,45.36
2018-06-17T07:57:52.966Z,45.40
2018-06-17T08:00:26.587Z,45.62
2018-06-17T08:02:59.653Z,46.39
2018-06-17T08:05:32.617Z,46.81
2018-06-17T08:08:08.243Z,46.01
2018-06-17T08:10:39.325Z,45.01
2018-06-17T08:13:10.645Z,44.53
2018-06-17T08:15:41.877Z,45.48
2018-06-17T08:18:14.933Z,44.00
2018-06-17T08:20:48.551Z,44.14
2018-06-17T08:23:24.684Z,44.73
2018-06-17T08:26:02.320Z,45.34
2018-06-17T08:28:41.181Z,45.09
2018-06-17T08:31:13.559Z,44.46
2018-06-17T08:33:47.409Z,44.95
2018-06-17T08:36:20.941Z,43.53
2018-06-17T08:38:51.808Z,43.17
2018-06-17T08:41:25.600Z,42.36
2018-06-17T08:44:09.908Z,42.27
2018-06-17T08:46:44.073Z,42.33
2018-06-17T08:49:16.188Z,42.76
2018-06-17T08:51:49.376Z,42.25
2018-06-17T08:54:22.464Z,42.37
2018-06-17T08:56:57.943Z,43.62
2018-06-17T08:59:29.693Z,43.05
2018-06-17T09:02:01.389Z,43.08
2018-06-17T09:04:36.460Z,43.69
2018-06-17T09:07:10.781Z,44.37
2018-06-17T09:09:44.781Z,44.03
2018-06-17T09:12:15.412Z,44.03
2018-06-17T09:14:49.492Z,43.09
2018-06-17T09:17:21.049Z,41.84
2018-06-17T09:19:51.388Z,42.44
2018-06-17T09:22:30.596Z,42.20
2018-06-17T09:25:02.396Z,43.22
2018-06-17T09:27:38.148Z,41.64
2018-06-17T09:30:13.613Z,41.52
2018-06-17T09:32:50.104Z,42.37
2018-06-17T09:35:24.153Z,42.52
2018-06-17T09:38:01.350Z,41.15
2018-06-17T09:40:38.080Z,41.93
2018-06-17T09:43:14.319Z,42.05
2018-06-17T09:45:47.579Z,42.18
2018-06-17T09:48:19.374Z,42.42
2018-06-17T09:50:54.846Z,43.11
2018-06-17T09:53:26.020Z,43.68
2018-06-17T09:55:58.057Z,44.23
2018-06-17T09:58:29.891Z,44.33
2018-06-17T10:01:02.998Z,44.70
2018-06-17T10:03:38.500Z,45.13
2018-06-17T10:06:09.676Z,45.06
2018-06-17T10:08:39.870Z,44.66
2018-06-17T10:11:10.485Z,44.85
2018-06-17T10:13:50.119Z,45.40
2018-06-17T10:16:21.741Z,44.30
2018-06-17T10:18:56.742Z,43.74
2018-06-17T10:21:30.040Z,43.04
2018-06-17T10:24:05.616Z,41.25
2018-06-17T10:26:40.151Z,41.22
2018-06-17T10:29:11.019Z,41.15
2018-06-17T10:31:45.373Z,41.21
2018-06-17T10:34:16.693Z,40.97
2018-06-17T10:36:49.403Z,40.77
2018-06-17T10:39:23.366Z,40.45
2018-06-17T10:42:00.506Z,41.21
2018-06-17T10:44:37.084Z,42.41
2018-06-17T10:47:13.336Z,42.10
2018-06-17T10:49:46.779Z,42.43
2018-06-17T10:52:23.486Z,43.00
2018-06-17T10:54:55.222Z,42.88
2018-06-17T10:57:29.879Z,42.88
2018-06-17T11:00:04.623Z,42.07
2018-06-17T11:02:37.736Z,41.32
2018-06-17T11:05:08.890Z,41.01
2018-06-17T11:07:41.312Z,40.19
2018-06-17T11:10:15.503Z,39.59
2018-06-17T11:12:53.880Z,39.33
2018-06-17T11:15:26.140Z,38.66
2018-06-17T11:17:58.852Z,39.09
2018-06-17T11:20:32.028Z,39.89
2018-06-17T11:23:11.652Z,39.85
2018-06-17T11:25:43.782Z,39.26
2018-06-17T11:28:18.511Z,39.89
2018-06-17T11:30:49.366Z,39.61
2018-06-17T11:33:22.821Z,40.06
2018-06-17T11:35:58.489Z,39.05
2018-06-17T11:38:34.514Z,39.29
2018-06-17T11:41:21.167Z,39.25
2018-06-17T11:44:00.277Z,39.25
2018-06-17T11:46:39.312Z,38.97
2018-06-17T11:49:12.603Z,39.56
2018-06-17T11:51:48.261Z,40.18
2018-06-17T11:54:23.913Z,39.99
2018-06-17T11:56:55.270Z,40.74
2018-06-17T11:59:27.504Z,40.92
2018-06-17T12:02:00.647Z,41.53
2018-06-17T12:04:37.459Z,42.21
2018-06-17T12:07:10.307Z,42.05
2018-06-17T12:09:41.800Z,42.92
2018-06-17T12:12:15.170Z,42.12
2018-06-17T12:14:50.750Z,41.93
2018-06-17T12:17:23.636Z,41.56
2018-06-17T12:19:58.719Z,41.41
2018-06-17T12:22:30.805Z,41.57
2018-06-17T12:25:01.396Z,41.26
2018-06-17T12:27:37.450Z,40.63
2018-06-17T12:30:28.867Z,40.47
2018-06-17T12:33:00.592Z,40.65
2018-06-17T12:35:34.384Z,41.38
2018-06-17T12:38:14.108Z,40.88
2018-06-17T12:40:51.879Z,39.93
2018-06-17T12:43:25.620Z,40.99
2018-06-17T12:45:58.501Z,38.88
2018-06-17T12:48:59.834Z,38.90
2018-06-17T12:51:30.217Z,39.29
2018-06-17T12:54:15.416Z,39.54
2018-06-17T12:56:49.412Z,39.22
2018-06-17T12:59:22.438Z,39.86
2018-06-17T13:01:53.434Z,39.43
2018-06-17T13:06:50.528Z,37.50
2018-06-17T13:09:24.274Z,36.57
2018-06-17T13:11:56.845Z,37.27
2018-06-17T13:14:27.133Z,36.81
2018-06-17T13:16:59.302Z,36.94
2018-06-17T13:19:32.526Z,36.32
2018-06-17T13:22:05.525Z,35.99
2018-06-17T13:24:39.222Z,36.29
2018-06-17T13:27:11.058Z,36.19
2018-06-17T13:29:42.631Z,35.76
2018-06-17T13:32:16.014Z,35.14
2018-06-17T13:34:49.158Z,35.50
2018-06-17T13:37:23.234Z,36.18
2018-06-17T13:39:56.643Z,35.72
2018-06-17T13:42:27.386Z,35.92
2018-06-17T13:44:59.862Z,36.16
2018-06-17T13:47:38.646Z,35.72
2018-06-17T13:50:11.602Z,34.83
2018-06-17T13:52:56.432Z,36.00
2018-06-17T13:55:28.515Z,36.02
2018-06-17T13:58:04.517Z,35.62
2018-06-17T14:00:52.635Z,36.04
2018-06-17T14:03:27.354Z,36.57
2018-06-17T14:06:23.473Z,37.15
2018-06-17T14:08:55.441Z,36.52
2018-06-17T14:11:27.303Z,36.52
2018-06-17T14:14:03.351Z,36.44
2018-06-17T14:16:39.418Z,36.16
2018-06-17T14:19:16.178Z,36.14
2018-06-17T14:21:49.562Z,36.09
2018-06-17T14:24:20.535Z,36.19
2018-06-17T14:26:51.504Z,36.53
2018-06-17T14:29:23.698Z,37.33
2018-06-17T14:31:59.820Z,37.04
2018-06-17T14:34:35.585Z,37.67
2018-06-17T14:37:07.882Z,37.30
2018-06-17T14:39:40.721Z,36.93
2018-06-17T14:42:16.377Z,36.70
2018-06-17T14:45:03.358Z,36.69
2018-06-17T14:47:40.399Z,36.77
2018-06-17T14:50:19.506Z,37.11
2018-06-17T14:52:59.216Z,36.71
2018-06-17T14:55:40.556Z,37.62
2018-06-17T14:58:34.740Z,37.62
2018-06-17T15:01:08.178Z,37.29
2018-06-17T15:03:42.432Z,36.28
2018-06-17T15:06:14.069Z,36.62
2018-06-17T15:08:49.715Z,36.64
2018-06-17T15:11:22.900Z,36.76
2018-06-17T15:13:55.781Z,36.81
2018-06-17T15:16:30.010Z,36.91
2018-06-17T15:19:11.518Z,37.63
2018-06-17T15:21:43.008Z,37.66
2018-06-17T15:24:16.267Z,36.88
2018-06-17T15:26:50.236Z,37.72
2018-06-17T15:29:21.455Z,38.02
2018-06-17T15:32:01.442Z,36.92
2018-06-17T15:34:38.390Z,37.63
2018-06-17T15:37:17.709Z,38.31
2018-06-17T15:40:02.738Z,37.83
2018-06-17T15:42:38.647Z,38.18
2018-06-17T15:45:16.325Z,38.66
2018-06-17T15:47:51.329Z,38.20
2018-06-17T15:50:27.210Z,37.55
2018-06-17T15:53:03.378Z,38.78
2018-06-17T15:58:32.326Z,38.03
2018-06-17T16:01:26.586Z,38.48
2018-06-17T16:04:06.478Z,38.59
2018-06-17T16:06:45.603Z,39.19
2018-06-17T16:09:26.634Z,38.73
2018-06-17T16:12:08.400Z,39.23
2018-06-17T16:20:52.807Z,40.14
2018-06-17T16:23:33.183Z,41.61
2018-06-17T16:26:15.670Z,41.36
2018-06-17T16:28:59.478Z,41.41
2018-06-17T16:31:38.175Z,40.82
2018-06-17T16:34:16.500Z,41.37
2018-06-17T16:37:11.849Z,41.02
2018-06-17T16:39:44.270Z,40.57
2018-06-17T16:45:07.684Z,40.97
2018-06-17T16:47:42.582Z,41.17
2018-06-17T16:50:20.290Z,41.34
2018-06-17T16:52:57.392Z,41.69
2018-06-17T16:55:38.017Z,41.22
2018-06-17T16:58:14.760Z,40.67
2018-06-17T17:00:46.527Z,40.97
2018-06-17T17:03:37.931Z,41.73
2018-06-17T17:06:11.910Z,40.58
2018-06-17T17:08:52.163Z,41.04
2018-06-17T17:11:26.210Z,41.70
2018-06-17T17:13:58.243Z,41.28
2018-06-17T17:16:31.169Z,41.06
2018-06-17T17:19:01.866Z,41.08
2018-06-17T17:21:36.045Z,41.67
2018-06-17T17:24:08.455Z,41.12
2018-06-17T17:26:46.969Z,40.98
2018-06-17T17:29:18.749Z,40.93
2018-06-17T17:32:04.696Z,40.59
2018-06-17T17:34:42.690Z,39.44
2018-06-17T17:37:18.176Z,40.79
2018-06-17T17:40:01.751Z,41.23
2018-06-17T17:42:58.763Z,41.11
2018-06-17T17:45:48.458Z,40.62
2018-06-17T17:48:24.407Z,40.39
2018-06-17T17:50:58.448Z,39.92
2018-06-17T17:53:29.866Z,40.68
2018-06-17T17:56:01.097Z,40.79
2018-06-17T17:58:34.763Z,40.70
2018-06-17T18:01:09.671Z,40.76
2018-06-17T18:03:44.459Z,40.10
2018-06-17T18:06:18.261Z,41.26
2018-06-17T18:08:52.928Z,40.85
2018-06-17T18:11:24.894Z,41.20
2018-06-17T18:13:57.417Z,41.39
2018-06-17T18:16:31.621Z,41.25
2018-06-17T18:19:04.015Z,40.69
2018-06-17T18:21:39.304Z,41.21
2018-06-17T18:29:05.984Z,41.02
2018-06-17T18:31:42.277Z,41.12
2018-06-17T18:34:21.133Z,41.14
2018-06-17T18:37:07.798Z,41.47
2018-06-17T18:39:40.941Z,41.90
2018-06-17T18:42:13.488Z,42.47
2018-06-17T18:44:53.366Z,42.21
2018-06-17T18:47:33.514Z,42.51
2018-06-17T18:50:09.436Z,42.18
2018-06-17T18:53:02.531Z,41.42
2018-06-17T18:55:35.269Z,41.49
2018-06-17T18:58:07.467Z,42.38
2018-06-17T19:00:40.145Z,42.20
2018-06-17T19:03:15.554Z,42.55
2018-06-17T19:05:57.286Z,42.57
2018-06-17T19:08:35.207Z,42.83
2018-06-17T19:11:13.364Z,42.31
2018-06-17T19:13:50.152Z,42.68
2018-06-17T19:16:27.729Z,42.59
2018-06-17T19:19:03.210Z,42.27
2018-06-17T19:21:33.630Z,42.88
2018-06-17T19:24:06.312Z,42.76
2018-06-17T19:32:42.214Z,42.23
2018-06-17T19:35:15.283Z,43.43
2018-06-17T19:37:54.752Z,43.11
2018-06-17T19:40:25.039Z,42.82
2018-06-17T19:43:13.144Z,42.48
2018-06-17T19:45:48.454Z,43.09
2018-06-17T19:48:21.982Z,42.68
2018-06-17T19:50:57.429Z,42.59
2018-06-17T19:53:41.387Z,43.68
2018-06-17T19:56:19.240Z,43.83
2018-06-17T19:58:56.624Z,43.92
2018-06-17T20:01:29.187Z,44.98
2018-06-17T20:04:05.065Z,44.99
2018-06-17T20:06:35.582Z,43.83
2018-06-17T20:09:09.063Z,43.95
2018-06-17T20:11:50.296Z,44.06
2018-06-17T20:14:26.237Z,44.05
2018-06-17T20:16:58.929Z,43.45
2018-06-17T20:19:33.478Z,43.39
2018-06-17T20:22:05.602Z,44.12
2018-06-17T20:24:38.631Z,44.34
2018-06-17T20:27:15.878Z,43.47
2018-06-17T20:29:49.086Z,44.02
2018-06-17T20:35:22.216Z,43.56
2018-06-17T20:38:04.182Z,44.01
2018-06-17T20:43:23.967Z,44.46
2018-06-17T20:45:57.257Z,44.19
2018-06-17T20:48:33.214Z,44.85
2018-06-17T20:51:06.249Z,44.52
2018-06-17T20:53:38.281Z,44.31
2018-06-17T20:56:11.741Z,45.36
2018-06-17T20:58:49.094Z,45.97
2018-06-17T21:01:24.804Z,46.53
2018-06-17T21:03:57.589Z,45.74
2018-06-17T21:06:28.445Z,46.38
2018-06-17T21:09:04.364Z,45.28
2018-06-17T21:11:54.976Z,45.04
2018-06-17T21:14:27.129Z,46.29
2018-06-17T21:17:11.363Z,46.18
2018-06-17T21:19:50.194Z,47.53
2018-06-17T21:22:28.840Z,47.99
2018-06-17T21:25:06.400Z,48.35
2018-06-17T21:27:42.965Z,48.43
2018-06-17T21:30:18.135Z,47.65
2018-06-17T21:33:01.350Z,47.93
2018-06-17T21:35:32.609Z,46.75
2018-06-17T21:38:11.005Z,47.38
2018-06-17T21:40:45.634Z,47.94
2018-06-17T21:43:19.617Z,48.03
2018-06-17T21:45:55.980Z,47.46
2018-06-17T21:48:30.551Z,47.73
2018-06-17T21:51:07.219Z,48.41
2018-06-17T21:53:38.793Z,48.05
2018-06-17T21:56:15.465Z,48.69
2018-06-17T21:58:49.400Z,47.62
2018-06-17T22:01:23.269Z,47.70
2018-06-17T22:04:11.941Z,48.72
2018-06-17T22:06:43.408Z,49.59
2018-06-17T22:09:19.770Z,50.56
2018-06-17T22:12:03.227Z,50.42
2018-06-17T22:14:38.957Z,50.56
2018-06-17T22:17:15.827Z,50.06
2018-06-17T22:19:50.363Z,50.14
2018-06-17T22:22:22.801Z,49.86
2018-06-17T22:24:54.802Z,48.84
2018-06-17T22:27:28.890Z,49.36
2018-06-17T22:32:45.889Z,49.09
2018-06-17T22:35:17.704Z,48.44
2018-06-17T22:37:49.295Z,49.57
2018-06-17T22:40:19.739Z,49.17
2018-06-17T22:42:53.166Z,49.96
2018-06-17T22:45:25.886Z,49.08
2018-06-17T22:48:00.277Z,49.47
2018-06-17T22:50:30.797Z,49.13
2018-06-17T22:55:11.529Z,48.94
2018-06-17T22:57:50.294Z,48.95
2018-06-17T23:00:28.457Z,48.49
2018-06-17T23:03:07.102Z,48.85
2018-06-17T23:05:54.772Z,48.84
2018-06-17T23:08:36.956Z,48.51
2018-06-17T23:11:11.017Z,49.04
2018-06-17T23:13:42.451Z,48.28
2018-06-17T23:16:16.442Z,48.62
2018-06-17T23:18:48.506Z,47.75
2018-06-17T23:21:19.471Z,47.65
2018-06-17T23:23:54.555Z,47.57
2018-06-17T23:26:30.275Z,47.33
2018-06-17T23:29:03.058Z,47.75
2018-06-17T23:31:35.647Z,47.34
2018-06-17T23:34:07.720Z,47.65
2018-06-17T23:36:39.949Z,47.65
2018-06-17T23:39:13.648Z,46.61
2018-06-17T23:41:44.695Z,47.15
2018-06-17T23:44:16.562Z,46.79
2018-06-17T23:46:52.285Z,46.77
2018-06-17T23:49:33.082Z,46.60
2018-06-17T23:52:10.453Z,46.76
2018-06-17T23:54:46.232Z,46.98
2018-06-17T23:57:16.979Z,46.31
2018-06-17T23:59:47.319Z,46.95
